Погода Малая Язовкана 2 недели

Смоленская область, Россия

22 мая-04 июня
  • 22мая
    Сегодня
    +12°
    +24°
    Небольшая облачность, ливень
    ВремяПогодаТемператураВлажностьДавлениеВетер, м/сВероятность осадков
    00:00Практически безоблачно+14°C88 %749 мм1.9 м/с2 %
    03:00Ясно и безоблачно+12°C93 %749 мм2.0 м/с2 %
    06:00Ясно и безоблачно+13°C90 %749 мм1.9 м/с2 %
    09:00Ясно и безоблачно+20°C74 %750 мм0.7 м/с2 %
    12:00Небольшая облачность+23°C61 %750 мм2.1 м/с9 %
    15:00Небольшая облачность, ливень+19°C85 %749 мм3.0 м/с53 %
    18:00Облачно с прояснениями+19°C75 %749 мм2.9 м/с36 %
    21:00Практически безоблачно+17°C88 %749 мм1.9 м/с2 %
  • 23мая
    Четверг
    +9°
    +23°
    Практически безоблачно
    ВремяПогодаТемператураВлажностьДавлениеВетер, м/сВероятность осадков
    00:00Ясно и безоблачно+14°C93 %750 мм2.8 м/с2 %
    03:00Ясно и безоблачно+13°C96 %750 мм2.7 м/с2 %
    06:00Ясно и безоблачно+13°C91 %751 мм4.3 м/с2 %
    09:00Ясно и безоблачно+18°C70 %752 мм4.6 м/с2 %
    12:00Ясно и безоблачно+22°C58 %753 мм5.6 м/с4 %
    15:00Практически безоблачно+22°C52 %753 мм5.8 м/с6 %
    18:00Практически безоблачно+21°C54 %753 мм6.0 м/с5 %
    21:00Ясно и безоблачно+17°C61 %754 мм5.5 м/с2 %
  • 24мая
    Пятница
    +7°
    +21°
    Ясно и безоблачно
    ВремяПогодаТемператураВлажностьДавлениеВетер, м/сВероятность осадков
    00:00Ясно и безоблачно+13°C60 %754 мм5.3 м/с2 %
    03:00Ясно и безоблачно+11°C57 %756 мм4.7 м/с2 %
    06:00Ясно и безоблачно+9°C60 %756 мм4.9 м/с2 %
    09:00Ясно и безоблачно+15°C55 %757 мм4.7 м/с2 %
    12:00Ясно и безоблачно+19°C48 %757 мм4.8 м/с2 %
    15:00Ясно и безоблачно+20°C45 %757 мм4.8 м/с2 %
    18:00Ясно и безоблачно+20°C47 %756 мм4.5 м/с2 %
    21:00Ясно и безоблачно+16°C61 %756 мм3.7 м/с2 %
  • 25мая
    Суббота
    +8°
    +22°
    Ясно и безоблачно
    ВремяПогодаТемператураВлажностьДавлениеВетер, м/сВероятность осадков
    00:00Ясно и безоблачно+12°C62 %757 мм3.8 м/с2 %
    03:00Ясно и безоблачно+10°C59 %756 мм3.3 м/с2 %
    06:00Ясно и безоблачно+8°C61 %757 мм3.1 м/с2 %
    09:00Ясно и безоблачно+16°C51 %757 мм3.0 м/с2 %
    12:00Ясно и безоблачно+20°C36 %757 мм3.2 м/с2 %
    15:00Ясно и безоблачно+21°C35 %756 мм2.9 м/с2 %
    18:00Ясно и безоблачно+21°C39 %755 мм2.8 м/с2 %
    21:00Ясно и безоблачно+16°C67 %754 мм2.6 м/с2 %
  • 26мая
    Воскресенье
    +8°
    +24°
    Ясно и безоблачно
    ВремяПогодаТемператураВлажностьДавлениеВетер, м/сВероятность осадков
    00:00Ясно и безоблачно+11°C79 %754 мм2.7 м/с2 %
    03:00Облачно с прояснениями+9°C86 %754 мм2.0 м/с2 %
    06:00Облачно с прояснениями+10°C78 %754 мм1.8 м/с2 %
    09:00Облачно с прояснениями+18°C60 %755 мм0.9 м/с2 %
    12:00Практически безоблачно+22°C39 %755 мм1.1 м/с2 %
    15:00Ясно и безоблачно+23°C38 %754 мм0.9 м/с2 %
    18:00Ясно и безоблачно+23°C39 %753 мм1.9 м/с2 %
    21:00Ясно и безоблачно+16°C58 %753 мм2.2 м/с2 %
Мы используем cookies
Соглашаюсь